Time;durP1;ratioP1;P1;durP2;ratioP2;P2;SDS_P1;SDS_P2;PMS_P1;PMS_P2;Temp;Humidity;BMP_temperature;BMP_pressure;BME280_temperature;BME280_humidity;BME280_pressure;Samples;Min_cycle;Max_cycle;Signal;HPM_P1;HPM_P2
2020/12/20 00:02:14;;;;;;;94.28;33.83;;;;;;;1.27;85.47;101557.34;1819225;78;21053;-68
2020/12/20 00:04:42;;;;;;;92.72;38.78;;;;;;;1.24;85.46;101555.64;1819208;78;22055;-67
2020/12/20 00:07:11;;;;;;;108.70;30.15;;;;;;;1.25;85.48;101557.80;1817300;78;21084;-67
2020/12/20 00:09:38;;;;;;;108.92;30.48;;;;;;;1.24;85.49;101560.84;1819181;78;21090;-68
2020/12/20 00:12:06;;;;;;;106.37;28.32;;;;;;;1.21;85.50;101550.95;1819121;78;21156;-68
2020/12/20 00:14:36;;;;;;;128.35;28.02;;;;;;;1.21;85.52;101553.55;1819327;78;21243;-68
2020/12/20 00:17:08;;;;;;;76.45;25.70;;;;;;;1.21;85.52;101560.06;1820348;77;22111;-68
2020/12/20 00:19:38;;;;;;;108.80;37.78;;;;;;;1.18;85.52;101555.79;1819120;78;21124;-68
2020/12/20 00:22:10;;;;;;;146.80;51.65;;;;;;;1.18;85.52;101555.79;1819183;78;21160;-68
2020/12/20 00:24:38;;;;;;;117.08;45.90;;;;;;;1.18;85.53;101556.23;1826312;77;21129;-68
2020/12/20 00:27:06;;;;;;;142.32;58.85;;;;;;;1.19;85.57;101559.25;1855013;77;21094;-68
2020/12/20 00:29:35;;;;;;;147.07;41.15;;;;;;;1.19;85.55;101559.25;1855000;77;21930;-68
2020/12/20 00:32:04;;;;;;;98.20;31.33;;;;;;;1.19;85.59;101557.95;1850788;77;21489;-68
2020/12/20 00:34:33;;;;;;;108.90;33.83;;;;;;;1.20;85.60;101562.26;1821506;78;21042;-68
2020/12/20 00:37:00;;;;;;;104.27;34.43;;;;;;;1.21;85.61;101561.37;1821463;78;21050;-68
2020/12/20 00:39:28;;;;;;;108.60;31.60;;;;;;;1.21;85.63;101563.97;1821465;78;21126;-68
2020/12/20 00:41:58;;;;;;;91.97;25.80;;;;;;;1.22;85.65;101561.33;1821495;78;22058;-68
2020/12/20 00:44:27;;;;;;;127.40;29.25;;;;;;;1.23;85.67;101562.18;1821410;78;21161;-68
2020/12/20 00:46:55;;;;;;;120.42;28.57;;;;;;;1.20;85.69;101552.70;1821486;78;21038;-68
2020/12/20 00:49:26;;;;;;;115.90;25.95;;;;;;;1.19;85.66;101552.30;1829091;77;21492;-68
2020/12/20 00:51:57;;;;;;;101.97;28.07;;;;;;;1.19;85.66;101554.90;1854760;77;21058;-68
2020/12/20 00:54:26;;;;;;;131.93;32.30;;;;;;;1.18;85.68;101551.03;1855022;77;22100;-67
2020/12/20 00:56:55;;;;;;;105.10;28.50;;;;;;;1.14;85.67;101549.77;1855046;77;21073;-67
2020/12/20 00:59:25;;;;;;;68.07;24.37;;;;;;;1.15;85.69;101551.94;1855095;77;21306;-67
2020/12/20 01:01:56;;;;;;;101.78;27.85;;;;;;;1.15;85.71;101557.14;1854937;77;21054;-67
2020/12/20 01:04:24;;;;;;;101.22;29.40;;;;;;;1.13;85.74;101551.11;1799626;77;21058;-68
2020/12/20 01:06:56;;;;;;;105.95;30.15;;;;;;;1.12;85.72;101549.41;1839827;77;22059;-67
2020/12/20 01:09:24;;;;;;;88.67;30.62;;;;;;;1.12;85.75;101554.16;1821481;78;21078;-67
2020/12/20 01:11:55;;;;;;;101.38;26.52;;;;;;;1.14;85.78;101554.12;1821460;78;21033;-67
2020/12/20 01:14:24;;;;;;;100.45;30.17;;;;;;;1.18;85.79;101557.54;1821503;78;21039;-68
2020/12/20 01:17:03;;;;;;;82.57;28.47;;;;;;;1.21;85.81;101557.02;1889931;75;29110;-68
2020/12/20 01:19:33;;;;;;;103.95;28.77;;;;;;;1.19;85.80;101552.74;1859393;77;21055;-68
2020/12/20 01:22:01;;;;;;;101.82;29.60;;;;;;;1.21;85.83;101562.67;1860876;77;24380;-68
2020/12/20 01:24:29;;;;;;;67.58;23.05;;;;;;;1.21;85.83;101561.37;1837324;77;21074;-68
2020/12/20 01:26:58;;;;;;;91.53;33.60;;;;;;;1.20;85.83;101560.95;1827241;78;21110;-67
2020/12/20 01:29:25;;;;;;;105.22;42.83;;;;;;;1.20;85.85;101563.56;1783383;80;21160;-68
2020/12/20 01:31:53;;;;;;;84.80;24.57;;;;;;;1.19;85.84;101565.75;1785718;80;21347;-68
2020/12/20 01:34:23;;;;;;;118.53;48.08;;;;;;;1.19;85.86;101567.91;1785635;80;22940;-67
2020/12/20 01:36:50;;;;;;;111.08;48.75;;;;;;;1.19;85.85;101570.95;1785623;80;21478;-67
2020/12/20 01:39:18;;;;;;;84.28;36.63;;;;;;;1.18;85.88;101566.20;1785794;80;21057;-68
2020/12/20 01:41:47;;;;;;;75.55;26.73;;;;;;;1.17;85.88;101563.64;1756477;80;21125;-67
2020/12/20 01:44:16;;;;;;;86.60;28.70;;;;;;;1.19;85.89;101564.45;1785086;80;21078;-68
2020/12/20 01:46:47;;;;;;;80.22;31.50;;;;;;;1.18;85.92;101565.34;1785695;80;23044;-67
2020/12/20 01:49:17;;;;;;;94.70;26.65;;;;;;;1.17;85.95;101561.89;1763590;79;21532;-67
2020/12/20 01:51:47;;;;;;;84.22;28.17;;;;;;;1.17;85.96;101563.64;1817868;79;21102;-67
2020/12/20 01:54:15;;;;;;;80.83;28.67;;;;;;;1.18;85.97;101563.59;1817831;79;21118;-67
2020/12/20 01:56:53;;;;;;;71.65;27.35;;;;;;;1.26;85.98;101572.10;1872211;75;29564;-68
2020/12/20 01:59:22;;;;;;;82.85;25.20;;;;;;;1.21;85.99;101567.88;1807813;79;21068;-67
2020/12/20 02:01:52;;;;;;;75.25;25.75;;;;;;;1.21;85.99;101565.27;1807652;79;22066;-67
2020/12/20 02:04:21;;;;;;;86.90;26.23;;;;;;;1.19;86.00;101568.36;1806807;79;21083;-67
2020/12/20 02:06:50;;;;;;;82.80;28.60;;;;;;;1.18;86.02;101575.30;1808468;79;21043;-67
2020/12/20 02:09:19;;;;;;;85.10;28.15;;;;;;;1.18;86.03;101574.01;1808406;79;20993;-67
2020/12/20 02:11:50;;;;;;;56.85;19.67;;;;;;;1.21;86.04;101573.08;1808533;79;21075;-67
2020/12/20 02:14:19;;;;;;;87.27;26.12;;;;;;;1.23;86.03;101573.89;1809668;78;22934;-67
2020/12/20 02:16:49;;;;;;;75.62;26.45;;;;;;;1.20;86.04;101570.06;1808969;78;21526;-67
2020/12/20 02:19:21;;;;;;;46.25;20.77;;;;;;;1.18;86.05;101564.05;1834112;78;21127;-68
2020/12/20 02:21:52;;;;;;;71.65;25.43;;;;;;;1.21;86.06;101575.67;1839862;78;21051;-67
2020/12/20 02:24:20;;;;;;;72.42;24.52;;;;;;;1.22;86.05;101573.48;1811193;78;21048;-67
2020/12/20 02:26:50;;;;;;;93.58;25.00;;;;;;;1.23;86.09;101581.25;1841072;78;21877;-67
2020/12/20 02:29:18;;;;;;;76.25;23.65;;;;;;;1.25;86.09;101576.01;1833687;78;21126;-67
2020/12/20 02:31:46;;;;;;;80.42;25.23;;;;;;;1.26;86.09;101581.66;1807887;79;21392;-67
2020/12/20 02:34:15;;;;;;;86.30;24.47;;;;;;;1.27;86.10;101580.77;1808414;79;21059;-67
2020/12/20 02:36:46;;;;;;;70.65;23.85;;;;;;;1.28;86.09;101581.17;1808432;79;21123;-67
2020/12/20 02:39:15;;;;;;;110.37;25.95;;;;;;;1.28;86.09;101580.73;1808034;79;21920;-67
2020/12/20 02:41:48;;;;;;;62.48;24.77;;;;;;;1.29;86.08;101583.73;1807814;78;21127;-68
2020/12/20 02:44:16;;;;;;;76.40;25.45;;;;;;;1.29;86.08;101591.55;1808400;79;21163;-68
2020/12/20 02:46:46;;;;;;;60.33;20.02;;;;;;;1.30;86.09;101588.49;1808451;79;21063;-67
2020/12/20 02:49:15;;;;;;;89.50;23.70;;;;;;;1.30;86.11;101585.89;1806331;79;21176;-67
2020/12/20 02:51:44;;;;;;;74.92;24.25;;;;;;;1.29;86.11;101591.55;1808485;79;22046;-67
2020/12/20 02:54:12;;;;;;;74.50;25.60;;;;;;;1.31;86.14;101596.27;1808370;78;21084;-68
2020/12/20 02:56:46;;;;;;;87.92;25.77;;;;;;;1.30;86.12;101591.95;1808218;79;21066;-67
2020/12/20 02:59:19;;;;;;;72.47;26.50;;;;;;;1.31;86.13;101591.06;1806719;79;21140;-67
2020/12/20 03:01:48;;;;;;;53.55;20.48;;;;;;;1.32;86.13;101593.22;1808447;79;21092;-67
2020/12/20 03:04:18;;;;;;;97.25;26.20;;;;;;;1.31;86.12;101592.36;1808520;79;22727;-67
2020/12/20 03:06:46;;;;;;;89.52;23.95;;;;;;;1.31;86.13;101594.11;1808069;78;21117;-67
2020/12/20 03:09:14;;;;;;;96.92;24.45;;;;;;;1.29;86.12;101595.45;1807800;79;21053;-67
2020/12/20 03:11:42;;;;;;;79.47;25.50;;;;;;;1.31;86.13;101592.81;1807820;78;21476;-67
2020/12/20 03:14:10;;;;;;;78.92;24.20;;;;;;;1.29;86.14;101588.09;1807874;78;21044;-67
2020/12/20 03:16:40;;;;;;;92.02;23.95;;;;;;;1.29;86.12;101589.39;1806833;79;22100;-68
2020/12/20 03:19:08;;;;;;;89.67;22.67;;;;;;;1.28;86.12;101591.13;1807758;78;21120;-67
2020/12/20 03:21:36;;;;;;;94.35;24.12;;;;;;;1.28;86.13;101596.34;1807790;79;21127;-67
2020/12/20 03:24:26;;;;;;;66.57;23.90;;;;;;;1.32;86.15;101593.22;1888602;76;29158;-68
2020/12/20 03:27:07;;;;;;;95.07;24.90;;;;;;;1.27;86.15;101598.53;1772824;80;21070;-68
2020/12/20 03:29:39;;;;;;;85.00;22.60;;;;;;;1.27;86.16;101594.62;1758589;81;22001;-67
2020/12/20 03:32:26;;;;;;;104.25;28.70;;;;;;;1.33;86.16;101589.72;1872268;76;27818;-68
2020/12/20 03:34:56;;;;;;;72.92;25.57;;;;;;;1.35;86.15;101596.63;1774032;80;21133;-68
2020/12/20 03:37:25;;;;;;;101.87;24.43;;;;;;;1.41;86.12;101600.83;1772595;81;22065;-68
2020/12/20 03:39:54;;;;;;;98.52;24.75;;;;;;;1.42;86.10;101605.14;1773444;80;21125;-67
2020/12/20 03:42:22;;;;;;;86.17;23.65;;;;;;;1.42;86.12;101608.59;1773851;81;21162;-67
2020/12/20 03:44:50;;;;;;;79.22;22.85;;;;;;;1.40;86.09;101609.08;1793221;80;21236;-67
2020/12/20 03:47:19;;;;;;;67.17;22.73;;;;;;;1.41;86.10;101612.54;1790263;80;21493;-67
2020/12/20 03:49:48;;;;;;;82.75;23.47;;;;;;;1.37;86.10;101610.91;1849762;77;22711;-67
2020/12/20 03:52:15;;;;;;;70.97;24.27;;;;;;;1.35;86.10;101612.66;1819398;77;21105;-67
2020/12/20 03:54:48;;;;;;;81.03;23.90;;;;;;;1.34;86.11;101610.50;1848150;77;21049;-67
2020/12/20 03:57:16;;;;;;;55.25;19.32;;;;;;;1.36;86.12;101611.35;1818986;77;21113;-67
2020/12/20 03:59:45;;;;;;;77.22;23.05;;;;;;;1.36;86.12;101618.30;1849810;77;21440;-67
2020/12/20 04:02:14;;;;;;;76.97;23.05;;;;;;;1.35;86.13;101626.56;1849782;77;21830;-67
2020/12/20 04:04:41;;;;;;;52.80;18.45;;;;;;;1.35;86.11;101623.07;1849705;77;21082;-67
2020/12/20 04:07:09;;;;;;;80.85;23.98;;;;;;;1.35;86.10;101629.58;1849856;77;21046;-67
2020/12/20 04:09:38;;;;;;;63.48;24.43;;;;;;;1.35;86.10;101628.28;1849714;77;21054;-68
2020/12/20 04:12:26;;;;;;;59.53;27.37;;;;;;;1.40;86.11;101626.45;1829437;76;27769;-68
2020/12/20 04:14:54;;;;;;;62.70;24.47;;;;;;;1.44;86.09;101627.64;1787859;79;21114;-68
2020/12/20 04:17:21;;;;;;;54.13;23.75;;;;;;;1.53;86.04;101629.19;1783279;80;21884;-68
2020/12/20 04:19:50;;;;;;;58.45;24.15;;;;;;;1.52;86.02;101626.63;1783226;80;21132;-68
2020/12/20 04:22:31;;;;;;;54.25;23.25;;;;;;;1.56;86.01;101631.74;1888581;76;29454;-68
2020/12/20 04:25:06;;;;;;;55.03;26.68;;;;;;;1.52;86.00;101631.83;1771387;80;21132;-68
2020/12/20 04:27:36;;;;;;;79.95;24.32;;;;;;;1.51;85.99;101636.19;1772350;81;22780;-68
2020/12/20 04:30:04;;;;;;;94.65;41.68;;;;;;;1.50;85.98;101634.47;1769432;80;21130;-68
2020/12/20 04:32:32;;;;;;;58.60;30.25;;;;;;;1.48;86.00;101634.95;1755936;81;21066;-68
2020/12/20 04:35:00;;;;;;;87.05;38.30;;;;;;;1.48;86.00;101641.47;1735796;82;21159;-68
2020/12/20 04:37:27;;;;;;;141.12;63.13;;;;;;;1.47;86.02;101643.66;1755984;81;21374;-68
2020/12/20 04:40:00;;;;;;;74.42;34.83;;;;;;;1.46;86.03;101642.39;1735315;82;22159;-68
2020/12/20 04:42:30;;;;;;;115.50;47.30;;;;;;;1.45;86.00;101642.84;1755207;81;21098;-68
2020/12/20 04:44:59;;;;;;;155.63;62.58;;;;;;;1.41;86.00;101648.98;1735791;82;21068;-69
2020/12/20 04:47:29;;;;;;;113.68;46.02;;;;;;;1.39;85.99;101641.66;1754813;81;21181;-69
2020/12/20 04:49:56;;;;;;;114.12;47.90;;;;;;;1.39;86.03;101655.53;1728041;81;21149;-68
2020/12/20 04:52:26;;;;;;;77.55;31.80;;;;;;;1.39;85.99;101646.87;1734197;82;22262;-68
2020/12/20 04:54:55;;;;;;;298.00;121.85;;;;;;;1.35;86.01;101656.50;1739293;81;21114;-67
2020/12/20 04:57:43;;;;;;;173.53;90.20;;;;;;;1.38;86.02;101650.36;1873744;75;27795;-68
2020/12/20 05:00:12;;;;;;;119.90;45.95;;;;;;;1.39;86.00;101650.33;1861146;77;21439;-68
2020/12/20 05:02:40;;;;;;;99.72;40.03;;;;;;;1.46;85.97;101647.16;1860906;77;21944;-68
2020/12/20 05:05:09;;;;;;;84.92;29.85;;;;;;;1.47;85.95;101661.03;1842177;77;21071;-68
2020/12/20 05:07:38;;;;;;;76.53;25.68;;;;;;;1.47;85.96;101654.08;1827255;78;21055;-68
2020/12/20 05:10:07;;;;;;;63.38;25.15;;;;;;;1.48;85.97;101659.69;1827114;78;21138;-68
2020/12/20 05:12:39;;;;;;;67.87;22.90;;;;;;;1.49;85.95;101660.09;1826537;78;21078;-67
2020/12/20 05:15:25;;;;;;;62.78;22.27;;;;;;;1.47;85.93;101663.19;1826566;78;22991;-67
2020/12/20 05:18:10;;;;;;;75.60;26.87;;;;;;;1.52;85.96;101662.62;1872373;76;27850;-68
2020/12/20 05:20:46;;;;;;;71.85;22.50;;;;;;;1.55;85.94;101669.09;1806484;79;21186;-67
2020/12/20 05:23:16;;;;;;;70.20;21.87;;;;;;;1.60;85.92;101671.14;1855660;76;22051;-68
2020/12/20 05:25:46;;;;;;;60.25;22.98;;;;;;;1.61;85.89;101668.08;1854114;76;21059;-67
2020/12/20 05:28:21;;;;;;;70.42;21.45;;;;;;;1.59;85.88;101680.28;1849902;77;21035;-68
2020/12/20 05:30:51;;;;;;;66.17;21.85;;;;;;;1.58;85.88;101679.88;1846362;77;21118;-67
2020/12/20 05:33:35;;;;;;;65.55;22.48;;;;;;;1.60;85.87;101681.55;1873577;76;29047;-68
2020/12/20 05:36:07;;;;;;;89.90;21.12;;;;;;;1.55;85.90;101686.02;1840263;78;21049;-68
2020/12/20 05:38:36;;;;;;;47.85;21.82;;;;;;;1.54;85.90;101687.33;1801572;79;22043;-68
2020/12/20 05:41:05;;;;;;;103.95;20.92;;;;;;;1.52;85.90;101689.97;1808453;79;21082;-68
2020/12/20 05:43:32;;;;;;;62.25;28.38;;;;;;;1.52;85.90;101689.11;1808549;79;21087;-67
2020/12/20 05:46:02;;;;;;;136.00;47.23;;;;;;;1.51;85.91;101689.56;1779294;79;21490;-67
2020/12/20 05:48:41;;;;;;;383.68;188.75;;;;;;;1.51;85.90;101689.56;1808252;78;21135;-67
2020/12/20 05:51:10;;;;;;;197.28;89.17;;;;;;;1.51;85.89;101699.12;1780071;79;22011;-68
2020/12/20 05:53:39;;;;;;;247.12;113.88;;;;;;;1.49;85.89;101703.06;1808476;79;22599;-67
2020/12/20 05:56:07;;;;;;;136.28;44.18;;;;;;;1.49;85.88;101698.30;1765362;80;21144;-67
2020/12/20 05:58:35;;;;;;;145.45;56.05;;;;;;;1.47;85.87;101700.08;1790682;80;21059;-68
2020/12/20 06:01:03;;;;;;;81.97;29.52;;;;;;;1.44;85.88;101703.58;1790745;80;21042;-68
2020/12/20 06:03:31;;;;;;;108.87;23.18;;;;;;;1.42;85.90;101698.41;1790750;80;21947;-68
2020/12/20 06:06:03;;;;;;;113.75;38.65;;;;;;;1.42;85.89;101694.95;1790662;80;21101;-68
2020/12/20 06:08:32;;;;;;;113.72;26.90;;;;;;;1.41;85.90;101703.66;1790761;79;21540;-67
2020/12/20 06:11:02;;;;;;;147.17;49.45;;;;;;;1.40;85.90;101708.45;1790705;80;21059;-68
2020/12/20 06:13:31;;;;;;;127.62;46.10;;;;;;;1.38;85.89;101701.13;1789552;80;21042;-68
2020/12/20 06:15:59;;;;;;;128.12;45.88;;;;;;;1.38;85.90;101703.73;1790684;79;22009;-68
2020/12/20 06:18:34;;;;;;;127.90;50.98;;;;;;;1.37;85.93;101710.68;1721592;80;21193;-68
2020/12/20 06:21:03;;;;;;;173.62;71.80;;;;;;;1.38;85.95;101708.94;1790754;79;21066;-68
2020/12/20 06:23:34;;;;;;;117.00;33.30;;;;;;;1.37;85.96;101715.89;1790669;80;21058;-68
2020/12/20 06:26:04;;;;;;;84.42;27.62;;;;;;;1.38;85.97;101723.25;1790716;80;21050;-68
2020/12/20 06:28:33;;;;;;;90.72;21.62;;;;;;;1.38;85.96;101723.25;1790723;79;21819;-67
2020/12/20 06:31:02;;;;;;;113.42;36.00;;;;;;;1.39;85.98;101732.77;1729688;81;21113;-67
2020/12/20 06:33:45;;;;;;;86.57;28.27;;;;;;;1.41;86.00;101733.15;1755757;81;21146;-67
2020/12/20 06:36:15;;;;;;;61.13;23.15;;;;;;;1.42;86.00;101736.61;1756160;81;21452;-67
2020/12/20 06:38:54;;;;;;;78.35;21.20;;;;;;;1.44;85.98;101732.22;1755999;81;21054;-67
2020/12/20 06:41:35;;;;;;;74.65;19.87;;;;;;;1.45;85.98;101739.17;1726647;81;22106;-67
2020/12/20 06:44:14;;;;;;;52.33;18.67;;;;;;;1.44;86.00;101730.92;1755555;80;21149;-67
2020/12/20 06:46:43;;;;;;;61.25;20.70;;;;;;;1.44;85.99;101738.28;1744320;81;21081;-67
2020/12/20 06:49:38;;;;;;;81.45;20.32;;;;;;;1.44;85.98;101742.63;1711702;83;21147;-68
2020/12/20 06:52:23;;;;;;;64.30;20.27;;;;;;;1.46;86.01;101742.19;1711778;83;21380;-67
2020/12/20 06:55:06;;;;;;;61.30;20.75;;;;;;;1.44;85.99;101746.09;1722796;83;21842;-68
2020/12/20 06:58:06;;;;;;;57.23;18.92;;;;;;;1.50;86.01;101745.58;1911054;74;28968;-68
2020/12/20 07:00:44;;;;;;;82.53;22.98;;;;;;;1.48;86.02;101744.31;1849828;77;21111;-68
2020/12/20 07:03:32;;;;;;;83.30;27.30;;;;;;;1.48;86.03;101747.36;1844793;77;22927;-68
2020/12/20 07:06:12;;;;;;;71.50;22.73;;;;;;;1.51;86.05;101748.14;1816431;79;21075;-67
2020/12/20 07:08:42;;;;;;;90.50;41.42;;;;;;;1.50;86.03;101749.03;1816178;79;21067;-67
2020/12/20 07:11:20;;;;;;;94.37;33.15;;;;;;;1.53;86.02;101745.50;1787746;79;21505;-67
2020/12/20 07:13:49;;;;;;;58.63;20.15;;;;;;;1.54;86.02;101746.77;1816533;78;21048;-68
2020/12/20 07:16:20;;;;;;;52.10;20.15;;;;;;;1.55;86.03;101740.70;1816456;79;21880;-67
2020/12/20 07:18:57;;;;;;;81.40;26.95;;;;;;;1.52;86.00;101745.95;1816378;79;21067;-67
2020/12/20 07:21:51;;;;;;;95.22;36.73;;;;;;;1.55;86.03;101750.27;1838195;77;21091;-67
2020/12/20 07:24:26;;;;;;;68.33;28.45;;;;;;;1.57;86.02;101754.98;1849788;77;21052;-68
2020/12/20 07:26:59;;;;;;;56.73;20.88;;;;;;;1.59;86.02;101742.79;1849653;77;21145;-68
2020/12/20 07:29:26;;;;;;;48.70;19.62;;;;;;;1.62;86.01;101753.13;1841549;77;22059;-68
2020/12/20 07:31:56;;;;;;;43.23;20.92;;;;;;;1.62;86.00;101745.32;1816794;79;21119;-68
2020/12/20 07:34:24;;;;;;;42.43;20.27;;;;;;;1.63;85.98;101749.19;1816472;78;21146;-68
2020/12/20 07:36:53;;;;;;;48.45;20.75;;;;;;;1.64;85.97;101749.63;1815402;78;21048;-68
2020/12/20 07:39:21;;;;;;;54.13;21.50;;;;;;;1.67;85.99;101749.55;1816479;79;21071;-68
2020/12/20 07:41:48;;;;;;;47.15;20.08;;;;;;;1.68;85.96;101753.02;1816429;79;22065;-69
2020/12/20 07:44:16;;;;;;;36.65;18.62;;;;;;;1.67;85.98;101748.25;1816364;79;21115;-68
2020/12/20 07:46:44;;;;;;;40.28;18.75;;;;;;;1.68;85.95;101747.36;1816406;79;21115;-68
2020/12/20 07:49:14;;;;;;;34.40;16.40;;;;;;;1.69;85.96;101755.58;1816386;79;21486;-68
2020/12/20 07:51:42;;;;;;;42.38;18.57;;;;;;;1.70;85.96;101755.14;1816501;78;21059;-68
2020/12/20 07:54:14;;;;;;;32.90;18.30;;;;;;;1.70;85.93;101754.69;1815292;79;21897;-68
2020/12/20 07:56:47;;;;;;;47.70;17.05;;;;;;;1.72;85.94;101762.47;1788060;79;21159;-68
2020/12/20 07:59:17;;;;;;;33.08;18.40;;;;;;;1.72;85.95;101765.93;1816413;79;21063;-68
2020/12/20 08:01:47;;;;;;;37.48;17.70;;;;;;;1.70;85.94;101766.86;1813810;79;21114;-68
2020/12/20 08:04:20;;;;;;;32.93;16.82;;;;;;;1.70;85.95;101770.31;1816445;79;21147;-68
2020/12/20 08:06:50;;;;;;;36.55;19.62;;;;;;;1.71;85.96;101771.17;1816556;79;21880;-68
2020/12/20 08:09:24;;;;;;;45.55;18.48;;;;;;;1.70;85.95;101775.53;1815499;79;21070;-68
2020/12/20 08:11:53;;;;;;;38.03;19.23;;;;;;;1.70;85.93;101778.13;1814899;79;21052;-68
2020/12/20 08:14:23;;;;;;;46.83;18.85;;;;;;;1.71;85.95;101771.17;1815836;79;21074;-68
2020/12/20 08:16:52;;;;;;;42.30;21.87;;;;;;;1.72;85.92;101772.89;1787178;79;21062;-68
2020/12/20 08:22:08;;;;;;;32.33;17.77;;;;;;;1.76;85.92;101765.89;1890034;76;29448;-68
2020/12/20 08:24:39;;;;;;;33.88;17.00;;;;;;;1.70;85.88;101770.31;1860975;77;21039;-67
2020/12/20 08:27:27;;;;;;;37.67;18.15;;;;;;;1.69;85.89;101767.75;1860935;77;22040;-67
2020/12/20 08:29:57;;;;;;;34.75;17.15;;;;;;;1.68;85.87;101769.50;1834515;77;21100;-68
2020/12/20 08:32:40;;;;;;;32.50;19.17;;;;;;;1.64;85.85;101770.47;1830003;77;21114;-68
2020/12/20 08:35:22;;;;;;;28.07;16.27;;;;;;;1.60;85.84;101774.00;1830668;78;21137;-68
2020/12/20 08:37:58;;;;;;;27.25;16.45;;;;;;;1.62;85.87;101765.70;1830675;78;21548;-68
2020/12/20 08:40:31;;;;;;;32.08;17.92;;;;;;;1.66;85.87;101767.38;1830725;78;22931;-68
2020/12/20 08:42:59;;;;;;;28.27;14.33;;;;;;;1.68;85.88;101769.95;1830753;78;21108;-68
2020/12/20 08:45:29;;;;;;;38.40;18.20;;;;;;;1.69;85.86;101766.00;1830500;77;21173;-68
2020/12/20 08:48:01;;;;;;;32.85;17.82;;;;;;;1.72;85.86;101771.14;1827208;77;21037;-68
2020/12/20 08:50:31;;;;;;;31.42;17.70;;;;;;;1.73;85.81;101768.09;1827195;78;21544;-68
2020/12/20 08:53:04;;;;;;;28.92;16.40;;;;;;;1.72;85.83;101763.33;1827105;77;22058;-68
2020/12/20 08:55:32;;;;;;;33.15;17.27;;;;;;;1.72;85.83;101763.77;1826993;78;21076;-68
2020/12/20 08:58:04;;;;;;;46.15;18.52;;;;;;;1.70;85.80;101766.41;1827127;78;21108;-67
2020/12/20 09:00:36;;;;;;;34.43;14.60;;;;;;;1.70;85.78;101757.30;1827106;78;21117;-67
2020/12/20 09:03:05;;;;;;;32.65;17.45;;;;;;;1.69;85.76;101766.45;1844522;77;21356;-67
2020/12/20 09:05:35;;;;;;;36.53;16.02;;;;;;;1.68;85.79;101766.04;1860810;77;22048;-67
2020/12/20 09:08:04;;;;;;;30.02;16.77;;;;;;;1.71;85.81;101769.42;1860788;77;21067;-68
2020/12/20 09:10:34;;;;;;;27.62;16.20;;;;;;;1.74;85.83;101771.14;1860849;77;21123;-68
2020/12/20 09:13:05;;;;;;;33.85;16.27;;;;;;;1.76;85.84;101766.75;1860842;77;21110;-68
2020/12/20 09:15:36;;;;;;;28.45;17.12;;;;;;;1.78;85.85;101765.41;1860978;77;21289;-68
2020/12/20 09:18:21;;;;;;;31.10;16.45;;;;;;;1.78;85.82;101771.92;1860236;77;23065;-68
2020/12/20 09:20:49;;;;;;;27.85;15.55;;;;;;;1.81;85.86;101770.54;1859367;77;21110;-67
2020/12/20 09:23:26;;;;;;;31.60;14.73;;;;;;;1.81;85.83;101769.23;1860825;77;21047;-67
2020/12/20 09:25:59;;;;;;;32.40;13.13;;;;;;;1.79;85.81;101772.33;1860842;77;21058;-68
2020/12/20 09:28:29;;;;;;;25.65;14.50;;;;;;;1.78;85.80;101766.70;1860854;77;21052;-68
2020/12/20 09:30:57;;;;;;;29.23;14.93;;;;;;;1.78;85.81;101766.70;1860826;77;22057;-68
2020/12/20 09:33:28;;;;;;;30.60;15.18;;;;;;;1.81;85.81;101765.33;1860284;77;21514;-67
2020/12/20 09:36:14;;;;;;;29.27;15.88;;;;;;;1.79;85.80;101766.67;1826630;77;21071;-67
2020/12/20 09:38:46;;;;;;;28.80;15.20;;;;;;;1.76;85.78;101766.75;1860163;77;21035;-68
2020/12/20 09:41:21;;;;;;;22.45;13.95;;;;;;;1.83;85.81;101764.84;1860241;77;21229;-69
2020/12/20 09:43:52;;;;;;;23.85;15.03;;;;;;;1.88;85.82;101761.27;1860189;77;21940;-67
2020/12/20 09:46:28;;;;;;;19.57;12.53;;;;;;;1.91;85.83;101755.98;1838373;77;21518;-68
2020/12/20 09:48:58;;;;;;;20.17;13.35;;;;;;;1.92;85.79;101759.44;1826604;78;21486;-67
2020/12/20 09:51:26;;;;;;;21.60;13.53;;;;;;;1.91;85.77;101759.89;1826437;78;21063;-67
2020/12/20 09:53:54;;;;;;;20.68;13.20;;;;;;;1.93;85.75;101752.03;1827657;77;21051;-67
2020/12/20 09:56:22;;;;;;;23.70;14.10;;;;;;;1.94;85.73;101752.03;1826514;78;21888;-67
2020/12/20 09:58:49;;;;;;;24.80;14.98;;;;;;;1.97;85.70;101757.16;1826438;78;21122;-67
2020/12/20 10:01:18;;;;;;;24.30;14.58;;;;;;;2.00;85.65;101758.84;1826442;78;21040;-67
2020/12/20 10:03:46;;;;;;;22.52;14.47;;;;;;;2.03;85.65;101754.88;1826431;78;21091;-67
2020/12/20 10:06:15;;;;;;;26.48;16.23;;;;;;;2.04;85.62;101752.69;1826501;78;21052;-67
2020/12/20 10:08:43;;;;;;;24.85;15.25;;;;;;;1.98;85.56;101757.58;1826514;78;21885;-67
2020/12/20 10:11:14;;;;;;;25.68;14.87;;;;;;;1.98;85.55;101761.93;1827632;77;21241;-67
2020/12/20 10:13:42;;;;;;;30.30;15.85;;;;;;;1.97;85.53;101757.61;1826599;78;21534;-67
2020/12/20 10:16:10;;;;;;;27.10;16.50;;;;;;;1.98;85.53;101751.06;1826466;78;21107;-67
2020/12/20 10:18:40;;;;;;;23.75;14.03;;;;;;;2.03;85.51;101752.28;1826525;78;21062;-68
2020/12/20 10:21:08;;;;;;;20.37;13.48;;;;;;;2.06;85.52;101756.11;1826327;78;22051;-68
2020/12/20 10:23:36;;;;;;;25.20;15.13;;;;;;;2.08;85.49;101755.63;1795082;78;21054;-67
2020/12/20 10:26:04;;;;;;;23.50;15.03;;;;;;;2.10;85.48;101758.19;1826467;78;21059;-68
2020/12/20 10:28:31;;;;;;;24.55;14.87;;;;;;;2.12;85.46;101762.47;1769998;78;21162;-67
2020/12/20 10:30:59;;;;;;;19.17;12.28;;;;;;;2.13;85.41;101759.45;1826391;78;21114;-67
2020/12/20 10:33:27;;;;;;;15.88;10.95;;;;;;;2.12;85.39;101755.09;1826513;78;21961;-67
2020/12/20 10:35:54;;;;;;;17.85;11.93;;;;;;;2.10;85.32;101764.26;1826439;78;21082;-67
2020/12/20 10:38:22;;;;;;;16.10;11.30;;;;;;;2.11;85.28;101766.41;1826459;78;21122;-67
2020/12/20 10:40:49;;;;;;;16.05;10.90;;;;;;;2.12;85.24;101757.26;1826385;78;22361;-67
2020/12/20 10:43:16;;;;;;;16.73;11.60;;;;;;;2.12;85.19;101757.70;1826467;78;21059;-67
2020/12/20 10:45:44;;;;;;;15.88;10.80;;;;;;;2.12;85.17;101750.73;1841116;77;21884;-67
2020/12/20 10:48:12;;;;;;;14.93;9.85;;;;;;;2.11;85.09;101755.99;1860085;77;21106;-67
2020/12/20 10:50:40;;;;;;;10.58;7.85;;;;;;;2.10;85.04;101751.23;1860220;77;20983;-67
2020/12/20 10:53:08;;;;;;;10.68;8.30;;;;;;;2.05;84.76;101750.94;1860116;77;21170;-67
2020/12/20 10:55:37;;;;;;;12.23;8.73;;;;;;;2.00;84.67;101747.11;1860193;77;21069;-67
2020/12/20 10:58:05;;;;;;;11.63;8.90;;;;;;;2.01;84.62;101744.91;1860119;77;22850;-67
2020/12/20 11:00:33;;;;;;;12.58;8.55;;;;;;;2.00;84.58;101744.06;1860053;77;21127;-68
2020/12/20 11:03:01;;;;;;;12.05;8.88;;;;;;;2.00;84.56;101745.36;1858894;77;21131;-68
2020/12/20 11:05:29;;;;;;;12.50;8.93;;;;;;;2.01;84.55;101743.61;1860133;77;21122;-68
2020/12/20 11:07:57;;;;;;;14.60;10.48;;;;;;;2.04;84.54;101740.10;1860183;77;20897;-69
2020/12/20 11:10:28;;;;;;;13.68;9.85;;;;;;;2.02;84.49;101742.72;1860023;77;21055;-68
2020/12/20 11:12:55;;;;;;;13.90;10.45;;;;;;;2.03;84.49;101741.85;1860071;77;21150;-68
2020/12/20 11:15:23;;;;;;;13.80;9.48;;;;;;;2.04;84.46;101747.92;1860118;77;21035;-68
2020/12/20 11:17:51;;;;;;;12.70;9.45;;;;;;;2.07;84.44;101742.19;1859121;77;21127;-68
2020/12/20 11:20:19;;;;;;;15.03;9.15;;;;;;;2.06;84.39;101746.98;1826405;78;21119;-68
2020/12/20 11:22:46;;;;;;;13.58;9.90;;;;;;;2.07;84.34;101752.61;1826331;78;22058;-68
2020/12/20 11:25:14;;;;;;;14.43;9.25;;;;;;;2.04;84.25;101751.38;1826334;78;21095;-68
2020/12/20 11:27:43;;;;;;;13.22;9.58;;;;;;;2.04;84.21;101759.20;1826509;78;21486;-68
2020/12/20 11:30:11;;;;;;;13.48;10.32;;;;;;;2.04;84.18;101759.65;1826343;78;21119;-68
2020/12/20 11:32:39;;;;;;;14.18;10.03;;;;;;;2.01;84.13;101763.16;1826428;78;21131;-68
2020/12/20 11:35:09;;;;;;;15.35;11.05;;;;;;;2.01;84.13;101764.01;1827513;77;21943;-68
2020/12/20 11:37:37;;;;;;;13.75;10.48;;;;;;;2.01;84.13;101764.01;1835870;77;21114;-68